createdAt,value
2018-09-18T00:00:19.564Z,56.60
2018-09-18T00:02:56.072Z,57.10
2018-09-18T00:05:26.513Z,57.20
2018-09-18T00:07:57.672Z,57.50
2018-09-18T00:10:28.065Z,58.10
2018-09-18T00:12:58.412Z,57.50
2018-09-18T00:15:28.815Z,57.60
2018-09-18T00:17:59.218Z,57.50
2018-09-18T00:20:48.740Z,57.90
2018-09-18T00:23:19.113Z,57.90
2018-09-18T00:25:49.489Z,57.70
2018-09-18T00:28:20.676Z,57.70
2018-09-18T00:30:54.060Z,57.70
2018-09-18T00:33:24.450Z,58.00
2018-09-18T00:35:54.875Z,57.80
2018-09-18T00:38:25.257Z,57.70
2018-09-18T00:40:55.645Z,57.80
2018-09-18T00:43:26.065Z,58.10
2018-09-18T00:45:57.229Z,58.70
2018-09-18T00:48:28.651Z,59.30
2018-09-18T00:50:59.092Z,59.00
2018-09-18T00:53:30.247Z,58.90
2018-09-18T00:56:01.409Z,59.60
2018-09-18T00:58:31.807Z,59.60
2018-09-18T01:01:02.971Z,59.80
2018-09-18T01:03:33.349Z,59.80
2018-09-18T01:06:03.791Z,59.90
2018-09-18T01:08:34.173Z,60.40
2018-09-18T01:11:07.631Z,60.70
2018-09-18T01:13:38.810Z,61.00
2018-09-18T01:16:09.196Z,61.00
2018-09-18T01:18:39.591Z,61.50
2018-09-18T01:21:11.220Z,62.00
2018-09-18T01:23:41.612Z,62.10
2018-09-18T01:26:12.767Z,63.00
2018-09-18T01:28:43.202Z,63.00
2018-09-18T01:31:13.596Z,63.40
2018-09-18T01:33:43.974Z,64.20
2018-09-18T01:36:16.441Z,64.40
2018-09-18T01:38:46.820Z,64.80
2018-09-18T01:41:17.207Z,64.90
2018-09-18T01:43:47.677Z,65.20
2018-09-18T01:46:24.169Z,65.70
2018-09-18T01:48:55.323Z,66.40
2018-09-18T01:51:25.737Z,66.40
2018-09-18T01:53:57.193Z,67.40
2018-09-18T01:56:27.594Z,67.30
2018-09-18T01:58:58.023Z,67.50
2018-09-18T02:01:28.423Z,68.10
2018-09-18T02:03:58.813Z,68.50
2018-09-18T02:06:29.249Z,68.30
2018-09-18T02:08:59.627Z,68.50
2018-09-18T02:11:30.012Z,68.90
2018-09-18T02:14:03.505Z,69.10
2018-09-18T02:16:35.941Z,69.80
2018-09-18T02:19:07.086Z,70.50
2018-09-18T02:21:38.275Z,71.00
2018-09-18T02:24:12.753Z,71.00
2018-09-18T02:26:43.897Z,72.50
2018-09-18T02:29:15.081Z,72.10
2018-09-18T02:34:33.209Z,72.20
2018-09-18T02:37:04.349Z,72.50
2018-09-18T02:39:35.716Z,73.10
2018-09-18T02:42:06.137Z,73.10
2018-09-18T02:44:37.281Z,74.00
2018-09-18T02:47:08.426Z,74.30
2018-09-18T02:49:39.603Z,74.70
2018-09-18T02:52:11.012Z,74.60
2018-09-18T02:54:42.163Z,74.50
2018-09-18T02:57:12.580Z,74.50
2018-09-18T02:59:43.727Z,76.10
2018-09-18T03:02:15.071Z,76.00
2018-09-18T03:04:45.483Z,75.90
2018-09-18T03:07:15.808Z,76.00
2018-09-18T03:09:46.200Z,76.00
2018-09-18T03:12:24.113Z,76.50
2018-09-18T03:14:57.573Z,77.00
2018-09-18T03:17:27.950Z,76.60
2018-09-18T03:19:58.384Z,77.40
2018-09-18T03:22:30.802Z,77.30
2018-09-18T03:25:01.197Z,78.10
2018-09-18T03:27:31.702Z,78.40
2018-09-18T03:30:02.010Z,78.90
2018-09-18T03:32:32.402Z,79.50
2018-09-18T03:35:02.810Z,80.30
2018-09-18T03:37:33.218Z,81.10
2018-09-18T03:40:03.617Z,81.60
2018-09-18T03:42:34.045Z,81.50
2018-09-18T03:45:04.440Z,81.60
2018-09-18T03:47:34.845Z,82.50
2018-09-18T03:50:05.283Z,82.40
2018-09-18T03:52:36.427Z,82.90
2018-09-18T03:55:07.601Z,82.90
2018-09-18T03:57:38.015Z,82.90
2018-09-18T04:00:08.410Z,83.50
2018-09-18T04:02:40.804Z,84.00
2018-09-18T04:05:11.201Z,84.50
2018-09-18T04:07:41.585Z,84.10
2018-09-18T04:10:11.975Z,84.70
2018-09-18T04:12:42.423Z,84.70
2018-09-18T04:15:12.808Z,84.90
2018-09-18T04:17:43.194Z,85.20
2018-09-18T04:20:15.583Z,86.40
2018-09-18T04:22:48.007Z,85.80
2018-09-18T04:25:19.348Z,87.40
2018-09-18T04:27:49.799Z,87.40
2018-09-18T04:30:26.259Z,86.70
2018-09-18T04:32:57.373Z,87.90
2018-09-18T04:35:27.841Z,87.90
2018-09-18T04:37:58.179Z,86.80
2018-09-18T04:40:28.601Z,87.40
2018-09-18T04:42:58.996Z,87.50
2018-09-18T04:45:30.160Z,88.80
2018-09-18T04:48:00.580Z,88.90
2018-09-18T04:50:33.460Z,88.90
2018-09-18T04:53:02.899Z,90.00
2018-09-18T04:55:34.277Z,90.00
2018-09-18T04:58:04.661Z,90.10
2018-09-18T05:00:35.051Z,90.10
2018-09-18T05:03:05.485Z,90.00
2018-09-18T05:05:36.659Z,90.10
2018-09-18T05:08:07.226Z,90.10
2018-09-18T05:10:37.664Z,90.40
2018-09-18T05:13:08.070Z,90.70
2018-09-18T05:15:45.641Z,90.60
2018-09-18T05:18:15.961Z,90.90
2018-09-18T05:20:46.334Z,90.90
2018-09-18T05:23:16.766Z,91.10
2018-09-18T05:25:47.145Z,91.10
2018-09-18T05:28:18.551Z,91.10
2018-09-18T05:30:48.900Z,91.50
2018-09-18T05:33:20.056Z,91.60
2018-09-18T05:35:50.444Z,91.60
2018-09-18T05:38:20.883Z,91.80
2018-09-18T05:40:51.282Z,92.10
2018-09-18T05:43:22.688Z,92.00
2018-09-18T05:45:53.114Z,92.00
2018-09-18T05:48:23.508Z,92.00
2018-09-18T05:50:53.889Z,91.90
2018-09-18T05:53:26.279Z,92.50
2018-09-18T05:56:02.811Z,93.00
2018-09-18T05:58:34.004Z,94.70
2018-09-18T06:01:04.424Z,94.70
2018-09-18T06:03:41.649Z,95.50
2018-09-18T06:06:14.092Z,95.80
2018-09-18T06:08:49.626Z,96.00
2018-09-18T06:11:20.018Z,96.10
2018-09-18T06:13:50.412Z,96.60
2018-09-18T06:16:21.839Z,96.20
2018-09-18T06:18:53.360Z,96.70
2018-09-18T06:21:23.642Z,96.50
2018-09-18T06:23:54.067Z,96.60
2018-09-18T06:26:24.458Z,96.10
2018-09-18T06:28:59.015Z,96.20
2018-09-18T06:31:29.378Z,96.80
2018-09-18T06:33:59.767Z,96.60
2018-09-18T06:36:30.152Z,97.20
2018-09-18T06:39:00.594Z,96.80
2018-09-18T06:41:30.984Z,97.10
2018-09-18T06:44:02.933Z,97.90
2018-09-18T06:49:22.007Z,98.10
2018-09-18T06:51:52.421Z,97.40
2018-09-18T06:54:23.825Z,97.20
2018-09-18T06:56:54.960Z,97.70
2018-09-18T06:59:26.153Z,97.40
2018-09-18T07:01:56.547Z,97.40
2018-09-18T07:04:26.941Z,97.50
2018-09-18T07:06:58.145Z,97.90
2018-09-18T07:09:28.537Z,97.80
2018-09-18T07:11:58.958Z,98.00
2018-09-18T07:14:30.156Z,98.10
2018-09-18T07:17:00.557Z,98.00
2018-09-18T07:19:30.976Z,97.60
2018-09-18T07:22:01.391Z,97.90
2018-09-18T07:24:31.778Z,97.80
2018-09-18T07:27:02.177Z,96.90
2018-09-18T07:29:54.027Z,97.90
2018-09-18T07:32:24.425Z,98.10
2018-09-18T07:35:02.172Z,98.20
2018-09-18T07:37:32.568Z,98.20
2018-09-18T07:40:03.152Z,97.90
2018-09-18T07:42:33.571Z,97.70
2018-09-18T07:45:04.726Z,97.70
2018-09-18T07:47:35.116Z,97.70
2018-09-18T07:50:05.531Z,97.70
2018-09-18T07:52:36.117Z,97.50
2018-09-18T07:55:06.521Z,97.30
2018-09-18T07:57:37.721Z,97.10
2018-09-18T08:00:08.126Z,97.10
2018-09-18T08:02:40.638Z,97.10
2018-09-18T08:05:12.782Z,97.00
2018-09-18T08:07:42.178Z,97.00
2018-09-18T08:10:12.650Z,97.10
2018-09-18T08:12:43.077Z,96.50
2018-09-18T08:15:13.469Z,96.40
2018-09-18T08:17:45.905Z,96.70
2018-09-18T08:20:17.159Z,96.20
2018-09-18T08:22:47.542Z,96.20
2018-09-18T08:25:19.064Z,95.60
2018-09-18T08:27:50.389Z,95.60
2018-09-18T08:30:20.814Z,95.80
2018-09-18T08:32:51.207Z,96.00
2018-09-18T08:35:21.640Z,96.40
2018-09-18T08:37:52.011Z,96.20
2018-09-18T08:40:22.438Z,96.20
2018-09-18T08:42:52.772Z,96.20
2018-09-18T08:45:23.169Z,96.20
2018-09-18T08:47:53.552Z,95.90
2018-09-18T08:50:25.029Z,95.70
2018-09-18T08:52:55.405Z,95.50
2018-09-18T08:55:27.842Z,95.00
2018-09-18T08:57:58.959Z,94.60
2018-09-18T09:00:29.361Z,94.60
2018-09-18T09:02:59.962Z,94.10
2018-09-18T09:05:30.380Z,94.30
2018-09-18T09:08:00.843Z,94.20
2018-09-18T09:10:31.220Z,93.30
2018-09-18T09:13:01.571Z,92.80
2018-09-18T09:15:31.937Z,92.20
2018-09-18T09:18:02.380Z,92.00
2018-09-18T09:20:32.705Z,92.00
2018-09-18T09:23:03.150Z,91.70
2018-09-18T09:25:33.691Z,92.00
2018-09-18T09:28:04.256Z,92.10
2018-09-18T09:30:38.665Z,92.10
2018-09-18T09:33:09.074Z,91.60
2018-09-18T09:35:40.275Z,91.30
2018-09-18T09:38:10.652Z,91.30
2018-09-18T09:40:40.964Z,91.60
2018-09-18T09:43:11.554Z,91.30
2018-09-18T09:45:41.883Z,91.10
2018-09-18T09:48:12.230Z,90.30
2018-09-18T09:50:43.403Z,89.20
2018-09-18T09:53:13.800Z,89.20
2018-09-18T09:55:44.969Z,89.50
2018-09-18T09:58:15.369Z,89.40
2018-09-18T10:00:46.536Z,87.70
2018-09-18T10:03:16.920Z,88.20
2018-09-18T10:05:47.345Z,87.80
2018-09-18T10:08:17.753Z,87.70
2018-09-18T10:10:50.410Z,87.50
2018-09-18T10:13:20.924Z,88.40
2018-09-18T10:15:52.074Z,89.10
2018-09-18T10:18:23.225Z,89.00
2018-09-18T10:20:53.647Z,89.10
2018-09-18T10:23:24.219Z,88.90
2018-09-18T10:25:55.658Z,88.70
2018-09-18T10:28:26.052Z,88.10
2018-09-18T10:30:56.451Z,86.60
2018-09-18T10:33:26.885Z,86.50
2018-09-18T10:35:57.272Z,85.40
2018-09-18T10:38:47.705Z,84.30
2018-09-18T10:41:18.254Z,84.90
2018-09-18T10:43:48.524Z,85.20
2018-09-18T10:46:38.055Z,85.10
2018-09-18T10:49:09.201Z,85.90
2018-09-18T10:51:39.581Z,85.80
2018-09-18T10:54:09.925Z,86.20
2018-09-18T10:56:40.968Z,86.60
2018-09-18T10:59:11.378Z,88.70
2018-09-18T11:01:41.819Z,91.50
2018-09-18T11:07:06.940Z,93.40
2018-09-18T11:09:37.185Z,94.40
2018-09-18T11:12:07.530Z,95.00
2018-09-18T11:14:38.001Z,95.60
2018-09-18T11:17:08.343Z,96.60
2018-09-18T11:19:38.767Z,96.90
2018-09-18T11:22:10.215Z,97.90
2018-09-18T11:24:40.607Z,98.30
2018-09-18T11:27:10.946Z,99.80
2018-09-18T11:29:45.457Z,99.90
2018-09-18T11:32:16.808Z,99.90
2018-09-18T11:34:47.202Z,99.90
2018-09-18T11:37:18.564Z,99.90
2018-09-18T11:39:48.947Z,99.80
2018-09-18T11:42:19.350Z,99.90
2018-09-18T11:44:51.791Z,99.90
2018-09-18T11:47:22.176Z,99.30
2018-09-18T11:49:52.501Z,99.00
2018-09-18T11:52:23.756Z,98.50
2018-09-18T11:54:54.336Z,98.80
2018-09-18T11:57:26.769Z,97.30
2018-09-18T11:59:57.944Z,96.30
2018-09-18T12:02:28.329Z,96.30
2018-09-18T12:04:58.734Z,96.40
2018-09-18T12:07:29.045Z,96.30
2018-09-18T12:10:17.781Z,96.20
2018-09-18T12:12:48.208Z,96.30
2018-09-18T12:15:18.600Z,96.50
2018-09-18T12:17:49.761Z,95.80
2018-09-18T12:20:20.960Z,95.70
2018-09-18T12:22:51.472Z,95.70
2018-09-18T12:25:21.758Z,95.50
2018-09-18T12:27:52.186Z,95.30
2018-09-18T12:30:22.566Z,94.00
2018-09-18T12:32:52.986Z,94.50
2018-09-18T12:35:24.101Z,94.50
2018-09-18T12:37:54.415Z,94.40
2018-09-18T12:40:24.792Z,93.20
2018-09-18T12:42:55.217Z,93.60
2018-09-18T12:45:28.327Z,93.80
2018-09-18T12:47:59.032Z,92.90
2018-09-18T12:50:29.519Z,92.20
2018-09-18T12:53:21.158Z,91.90
2018-09-18T12:55:51.598Z,91.70
2018-09-18T12:58:21.993Z,91.90
2018-09-18T13:00:52.285Z,92.00
2018-09-18T13:03:22.724Z,92.30
2018-09-18T13:05:53.113Z,91.90
2018-09-18T13:08:30.696Z,92.00
2018-09-18T13:11:01.022Z,91.90
2018-09-18T13:13:31.411Z,91.70
2018-09-18T13:16:01.816Z,91.80
2018-09-18T13:18:32.214Z,91.80
2018-09-18T13:21:05.628Z,91.80
2018-09-18T13:23:35.997Z,92.00
2018-09-18T13:26:06.385Z,92.00
2018-09-18T13:28:36.799Z,92.20
2018-09-18T13:31:13.390Z,92.40
2018-09-18T13:33:44.445Z,92.30
2018-09-18T13:36:14.869Z,92.40
2018-09-18T13:38:45.290Z,92.40
2018-09-18T13:41:15.760Z,92.50
2018-09-18T13:43:49.071Z,92.50
2018-09-18T13:46:19.502Z,92.10
2018-09-18T13:48:49.949Z,92.20
2018-09-18T13:51:21.037Z,92.40
2018-09-18T13:53:52.224Z,92.60
2018-09-18T13:56:30.121Z,92.60
2018-09-18T13:59:00.340Z,92.80
2018-09-18T14:01:31.881Z,92.90
2018-09-18T14:04:02.152Z,92.80
2018-09-18T14:06:32.568Z,92.80
2018-09-18T14:09:03.084Z,93.00
2018-09-18T14:11:33.421Z,92.80
2018-09-18T14:14:04.556Z,93.10
2018-09-18T14:16:42.264Z,93.10
2018-09-18T14:19:12.703Z,93.40
2018-09-18T14:21:43.103Z,93.70
2018-09-18T14:24:15.544Z,93.90
2018-09-18T14:26:46.079Z,93.90
2018-09-18T14:29:17.061Z,93.60
2018-09-18T14:31:47.448Z,93.60
2018-09-18T14:34:17.871Z,93.60
2018-09-18T14:36:48.258Z,92.90
2018-09-18T14:39:18.580Z,93.20
2018-09-18T14:41:50.019Z,93.20
2018-09-18T14:44:20.405Z,92.80
2018-09-18T14:46:50.931Z,93.00
2018-09-18T14:49:21.225Z,92.70
2018-09-18T14:51:51.630Z,92.60
2018-09-18T14:54:23.039Z,92.70
2018-09-18T14:59:41.465Z,91.80
2018-09-18T15:02:11.899Z,91.80
2018-09-18T15:04:42.333Z,91.70
2018-09-18T15:07:14.747Z,91.90
2018-09-18T15:09:46.792Z,91.00
2018-09-18T15:12:17.188Z,91.00
2018-09-18T15:14:47.829Z,91.10
2018-09-18T15:17:18.195Z,91.10
2018-09-18T15:19:48.614Z,91.10
2018-09-18T15:22:19.023Z,91.20
2018-09-18T15:24:50.216Z,91.20
2018-09-18T15:27:40.042Z,91.10
2018-09-18T15:30:11.453Z,91.10
2018-09-18T15:32:41.838Z,91.20
2018-09-18T15:35:12.246Z,91.00
2018-09-18T15:37:42.656Z,91.10
2018-09-18T15:40:13.225Z,90.90
2018-09-18T15:42:43.621Z,91.00
2018-09-18T15:45:14.081Z,91.10
2018-09-18T15:47:44.493Z,91.40
2018-09-18T15:50:14.870Z,91.30
2018-09-18T15:52:48.280Z,91.30
2018-09-18T15:55:18.814Z,90.00
2018-09-18T15:57:54.288Z,91.50
2018-09-18T16:00:27.094Z,91.20
2018-09-18T16:02:57.502Z,91.30
2018-09-18T16:05:27.925Z,91.30
2018-09-18T16:07:58.349Z,91.20
2018-09-18T16:10:28.752Z,90.60
2018-09-18T16:13:02.180Z,91.10
2018-09-18T16:18:02.762Z,91.10
2018-09-18T16:20:33.387Z,91.30
2018-09-18T16:23:03.802Z,90.90
2018-09-18T16:25:34.181Z,90.90
2018-09-18T16:28:04.533Z,91.10
2018-09-18T16:30:34.933Z,91.10
2018-09-18T16:33:06.279Z,90.50
2018-09-18T16:35:36.713Z,90.60
2018-09-18T16:38:08.128Z,90.50
2018-09-18T16:40:39.229Z,90.40
2018-09-18T16:43:11.250Z,90.30
2018-09-18T16:45:48.955Z,90.30
2018-09-18T16:48:38.566Z,90.40
2018-09-18T16:51:08.934Z,90.40
2018-09-18T16:53:39.330Z,90.30
2018-09-18T16:56:10.534Z,90.80
2018-09-18T16:58:42.044Z,90.70
2018-09-18T17:01:12.271Z,90.60
2018-09-18T17:03:42.718Z,90.70
2018-09-18T17:06:13.116Z,90.60
2018-09-18T17:08:43.524Z,90.80
2018-09-18T17:11:13.955Z,90.90
2018-09-18T17:13:45.127Z,91.70
2018-09-18T17:16:15.520Z,91.40
2018-09-18T17:18:45.933Z,91.20
2018-09-18T17:21:16.343Z,91.40
2018-09-18T17:23:46.746Z,91.50
2018-09-18T17:26:20.246Z,91.60
2018-09-18T17:28:50.878Z,91.70
2018-09-18T17:31:20.913Z,92.00
2018-09-18T17:33:52.349Z,92.10
2018-09-18T17:36:22.740Z,92.10
2018-09-18T17:38:53.898Z,92.40
2018-09-18T17:41:24.346Z,92.40
2018-09-18T17:43:54.705Z,92.40
2018-09-18T17:46:25.027Z,92.30
2018-09-18T17:48:55.453Z,92.50
2018-09-18T17:51:26.859Z,92.80
2018-09-18T17:53:57.188Z,93.10
2018-09-18T17:56:27.616Z,93.50
2018-09-18T17:58:57.942Z,94.20
2018-09-18T18:01:28.334Z,94.30
2018-09-18T18:03:58.761Z,94.50
2018-09-18T18:06:29.926Z,94.80
2018-09-18T18:09:01.103Z,95.60
2018-09-18T18:11:31.459Z,95.60
2018-09-18T18:14:04.610Z,96.30
2018-09-18T18:16:35.000Z,96.60
2018-09-18T18:22:32.086Z,98.10
2018-09-18T18:25:02.507Z,98.30
2018-09-18T18:27:33.524Z,98.50
2018-09-18T18:30:03.922Z,98.60
2018-09-18T18:32:56.717Z,99.10
2018-09-18T18:35:27.090Z,99.10
2018-09-18T18:37:57.435Z,99.60
2018-09-18T18:40:48.426Z,99.00
2018-09-18T18:43:21.494Z,99.50
2018-09-18T18:45:51.898Z,99.40
2018-09-18T18:48:23.221Z,99.30
2018-09-18T18:50:53.534Z,99.50
2018-09-18T18:53:23.937Z,99.60
2018-09-18T18:55:54.346Z,99.40
2018-09-18T18:58:25.516Z,99.30
2018-09-18T19:00:55.842Z,99.30
2018-09-18T19:03:29.270Z,99.40
2018-09-18T19:06:00.711Z,99.20
2018-09-18T19:08:31.116Z,99.20
2018-09-18T19:11:04.211Z,99.10
2018-09-18T19:13:34.550Z,99.00
2018-09-18T19:16:04.958Z,99.00
2018-09-18T19:18:39.560Z,98.70
2018-09-18T19:21:14.022Z,98.90
2018-09-18T19:23:51.753Z,99.10
2018-09-18T19:26:22.164Z,98.70
2018-09-18T19:28:52.573Z,98.80
2018-09-18T19:31:23.004Z,98.80
2018-09-18T19:33:53.411Z,98.70
2018-09-18T19:36:25.862Z,98.60
2018-09-18T19:38:56.350Z,98.60
2018-09-18T19:41:26.904Z,98.70
2018-09-18T19:43:57.317Z,98.80
2018-09-18T19:46:27.680Z,98.90
2018-09-18T19:48:58.098Z,98.90
2018-09-18T19:51:31.612Z,99.10
2018-09-18T19:54:04.077Z,99.10
2018-09-18T19:56:37.313Z,99.00
2018-09-18T19:59:17.436Z,99.10
2018-09-18T20:01:50.918Z,99.20
2018-09-18T20:04:26.372Z,99.20
2018-09-18T20:06:59.919Z,99.20
2018-09-18T20:09:31.372Z,99.20
2018-09-18T20:12:01.792Z,99.60
2018-09-18T20:14:36.318Z,99.30
2018-09-18T20:17:06.687Z,99.20
2018-09-18T20:19:38.083Z,99.20
2018-09-18T20:22:10.516Z,99.20
2018-09-18T20:24:41.871Z,99.20
2018-09-18T20:27:12.297Z,99.20
2018-09-18T20:29:48.445Z,99.40
2018-09-18T20:32:18.903Z,99.40
2018-09-18T20:34:49.236Z,99.50
2018-09-18T20:37:19.484Z,99.60
2018-09-18T20:39:49.995Z,99.70
2018-09-18T20:42:20.311Z,99.60
2018-09-18T20:44:51.739Z,99.70
2018-09-18T20:47:24.827Z,99.80
2018-09-18T20:49:55.406Z,99.90
2018-09-18T20:52:25.824Z,99.90
2018-09-18T20:55:03.510Z,99.90
2018-09-18T20:57:34.932Z,99.90
2018-09-18T21:00:06.102Z,99.90
2018-09-18T21:02:37.451Z,99.90
2018-09-18T21:05:07.779Z,99.90
2018-09-18T21:07:38.100Z,99.90
2018-09-18T21:10:08.544Z,99.90
2018-09-18T21:12:40.749Z,99.90
2018-09-18T21:15:11.140Z,99.90
2018-09-18T21:18:00.682Z,99.90
2018-09-18T21:20:31.080Z,99.90
2018-09-18T21:23:01.499Z,99.90
2018-09-18T21:25:31.832Z,99.90
2018-09-18T21:28:02.973Z,99.90
2018-09-18T21:30:33.326Z,99.90
2018-09-18T21:33:04.612Z,99.90
2018-09-18T21:35:56.355Z,99.90
2018-09-18T21:38:26.787Z,99.90
2018-09-18T21:40:57.184Z,99.90
2018-09-18T21:43:27.767Z,99.90
2018-09-18T21:45:58.955Z,99.90
2018-09-18T21:48:29.277Z,99.90
2018-09-18T21:50:59.677Z,99.90
2018-09-18T21:53:31.802Z,99.90
2018-09-18T21:56:03.242Z,99.90
2018-09-18T21:58:55.773Z,99.90
2018-09-18T22:01:26.162Z,99.90
2018-09-18T22:03:56.417Z,99.90
2018-09-18T22:06:26.858Z,99.90
2018-09-18T22:08:57.454Z,99.90
2018-09-18T22:11:27.855Z,99.90
2018-09-18T22:13:58.306Z,99.90
2018-09-18T22:16:29.402Z,99.90
2018-09-18T22:19:01.838Z,99.90
2018-09-18T22:21:32.278Z,99.90
2018-09-18T22:24:02.670Z,99.90
2018-09-18T22:26:34.082Z,99.90
2018-09-18T22:29:06.273Z,99.90
2018-09-18T22:31:37.681Z,99.90
2018-09-18T22:34:08.009Z,99.90
2018-09-18T22:36:38.422Z,99.90
2018-09-18T22:39:08.751Z,99.90
2018-09-18T22:41:39.094Z,99.90
2018-09-18T22:47:17.524Z,99.90
2018-09-18T22:49:48.652Z,99.90
2018-09-18T22:52:18.975Z,99.90
2018-09-18T22:54:49.378Z,99.90
2018-09-18T22:57:19.800Z,99.90
2018-09-18T22:59:50.119Z,99.90
2018-09-18T23:02:20.515Z,99.90
2018-09-18T23:05:00.914Z,99.90
2018-09-18T23:07:31.313Z,99.90
2018-09-18T23:10:01.701Z,99.90
2018-09-18T23:12:32.153Z,99.90
2018-09-18T23:15:21.918Z,99.90
2018-09-18T23:17:52.335Z,99.90
2018-09-18T23:20:22.739Z,99.90
2018-09-18T23:22:53.816Z,99.90
2018-09-18T23:25:28.340Z,99.90
2018-09-18T23:28:02.845Z,99.90
2018-09-18T23:30:33.251Z,99.90
2018-09-18T23:33:04.638Z,99.90
2018-09-18T23:35:35.037Z,99.90
2018-09-18T23:38:05.476Z,99.90
2018-09-18T23:40:35.855Z,99.90
2018-09-18T23:43:06.262Z,99.90
2018-09-18T23:45:44.201Z,99.90
2018-09-18T23:48:14.582Z,99.90
2018-09-18T23:50:51.920Z,99.90
2018-09-18T23:53:22.334Z,99.90
2018-09-18T23:55:52.724Z,99.90
2018-09-18T23:58:42.512Z,99.90
